createdAt,value
2022-09-10T00:01:23.658Z,24.13
2022-09-10T00:03:53.731Z,23.70
2022-09-10T00:06:26.187Z,23.67
2022-09-10T00:08:56.223Z,24.17
2022-09-10T00:11:24.852Z,23.80
2022-09-10T00:13:55.566Z,24.58
2022-09-10T00:16:23.525Z,23.90
2022-09-10T00:18:51.688Z,24.02
2022-09-10T00:21:22.007Z,23.73
2022-09-10T00:23:50.938Z,23.83
2022-09-10T00:26:25.616Z,24.20
2022-09-10T00:28:58.443Z,24.40
2022-09-10T00:31:26.742Z,23.20
2022-09-10T00:33:55.423Z,23.73
2022-09-10T00:36:25.562Z,23.83
2022-09-10T00:38:55.918Z,23.10
2022-09-10T00:41:27.705Z,24.08
2022-09-10T00:43:58.541Z,24.30
2022-09-10T00:46:37.181Z,25.48
2022-09-10T00:49:11.468Z,24.88
2022-09-10T00:51:40.512Z,26.42
2022-09-10T00:54:09.398Z,25.75
2022-09-10T00:56:39.125Z,26.05
2022-09-10T00:59:10.538Z,25.98
2022-09-10T01:01:40.460Z,26.15
2022-09-10T01:04:10.709Z,26.83
2022-09-10T01:06:40.293Z,24.75
2022-09-10T01:09:09.184Z,25.40
2022-09-10T01:11:53.022Z,26.20
2022-09-10T01:14:38.528Z,25.90
2022-09-10T01:17:15.485Z,25.55
2022-09-10T01:20:17.114Z,25.75
2022-09-10T01:23:01.229Z,24.83
2022-09-10T01:25:41.472Z,25.20
2022-09-10T01:28:16.350Z,24.25
2022-09-10T01:30:50.104Z,24.42
2022-09-10T01:33:23.860Z,23.60
2022-09-10T01:35:54.492Z,23.00
2022-09-10T01:38:26.456Z,22.92
2022-09-10T01:40:56.182Z,22.73
2022-09-10T01:43:25.863Z,22.35
2022-09-10T01:46:08.524Z,22.10
2022-09-10T01:48:54.129Z,21.92
2022-09-10T01:51:29.939Z,22.17
2022-09-10T01:54:18.010Z,21.05
2022-09-10T01:56:54.228Z,22.00
2022-09-10T01:59:34.430Z,21.70
2022-09-10T02:02:09.067Z,21.40
2022-09-10T02:04:38.044Z,22.55
2022-09-10T02:07:08.194Z,22.02
2022-09-10T02:09:36.302Z,22.73
2022-09-10T02:12:04.665Z,23.15
2022-09-10T02:14:34.211Z,25.13
2022-09-10T02:17:02.898Z,24.25
2022-09-10T02:19:30.929Z,23.73
2022-09-10T02:22:00.965Z,24.70
2022-09-10T02:24:28.963Z,23.52
2022-09-10T02:26:56.907Z,23.60
2022-09-10T02:29:25.071Z,24.38
2022-09-10T02:31:54.502Z,24.45
2022-09-10T02:34:23.145Z,24.83
2022-09-10T02:36:51.111Z,23.25
2022-09-10T02:39:19.208Z,23.85
2022-09-10T02:41:48.190Z,24.63
2022-09-10T02:44:16.246Z,23.70
2022-09-10T02:46:44.235Z,23.30
2022-09-10T02:49:13.638Z,23.17
2022-09-10T02:51:42.404Z,23.27
2022-09-10T02:54:10.548Z,23.40
2022-09-10T02:56:38.597Z,23.48
2022-09-10T02:59:06.541Z,23.80
2022-09-10T03:01:35.154Z,24.02
2022-09-10T03:04:03.505Z,24.25
2022-09-10T03:06:33.006Z,23.02
2022-09-10T03:09:02.136Z,24.27
2022-09-10T03:11:31.740Z,23.75
2022-09-10T03:13:59.915Z,25.23
2022-09-10T03:16:28.002Z,23.88
2022-09-10T03:18:56.024Z,23.98
2022-09-10T03:21:25.814Z,22.65
2022-09-10T03:23:56.886Z,23.55
2022-09-10T03:26:26.306Z,22.25
2022-09-10T03:28:54.316Z,22.50
2022-09-10T03:31:22.789Z,23.35
2022-09-10T03:33:51.197Z,24.77
2022-09-10T03:36:20.828Z,25.73
2022-09-10T03:38:48.927Z,25.98
2022-09-10T03:41:18.395Z,26.80
2022-09-10T03:43:46.333Z,26.00
2022-09-10T03:46:14.495Z,25.42
2022-09-10T03:48:43.482Z,25.35
2022-09-10T03:51:11.787Z,24.70
2022-09-10T03:53:40.880Z,24.77
2022-09-10T03:56:09.202Z,23.77
2022-09-10T03:58:39.207Z,23.58
2022-09-10T04:01:08.115Z,23.85
2022-09-10T04:03:36.108Z,23.48
2022-09-10T04:06:04.183Z,23.55
2022-09-10T04:08:32.281Z,23.67
2022-09-10T04:11:03.246Z,23.75
2022-09-10T04:13:32.997Z,23.33
2022-09-10T04:16:02.709Z,22.63
2022-09-10T04:18:33.609Z,24.63
2022-09-10T04:21:02.187Z,23.00
2022-09-10T04:23:30.546Z,23.63
2022-09-10T04:25:58.502Z,23.38
2022-09-10T04:28:26.770Z,24.00
2022-09-10T04:30:54.926Z,25.17
2022-09-10T04:33:26.684Z,24.15
2022-09-10T04:35:55.188Z,24.48
2022-09-10T04:38:23.210Z,24.83
2022-09-10T04:40:51.201Z,25.00
2022-09-10T04:43:19.187Z,25.38
2022-09-10T04:45:47.202Z,24.77
2022-09-10T04:48:15.627Z,24.10
2022-09-10T04:51:05.445Z,25.05
2022-09-10T04:53:34.461Z,24.75
2022-09-10T04:56:02.798Z,23.83
2022-09-10T04:58:34.233Z,23.48
2022-09-10T05:01:06.079Z,25.42
2022-09-10T05:03:34.099Z,23.80
2022-09-10T05:06:03.532Z,23.73
2022-09-10T05:08:31.670Z,23.77
2022-09-10T05:11:01.182Z,23.55
2022-09-10T05:13:31.357Z,22.92
2022-09-10T05:15:59.829Z,23.02
2022-09-10T05:18:28.209Z,22.02
2022-09-10T05:20:56.201Z,20.60
2022-09-10T05:23:25.680Z,21.83
2022-09-10T05:25:53.997Z,21.50
2022-09-10T05:28:22.651Z,21.75
2022-09-10T05:30:51.877Z,24.80
2022-09-10T05:33:20.020Z,22.58
2022-09-10T05:35:51.536Z,23.08
2022-09-10T05:38:20.201Z,23.02
2022-09-10T05:40:50.380Z,23.17
2022-09-10T05:43:18.395Z,23.08
2022-09-10T05:45:47.216Z,22.80
2022-09-10T05:48:15.411Z,22.90
2022-09-10T05:50:45.537Z,21.73
2022-09-10T05:53:13.504Z,22.90
2022-09-10T05:55:41.502Z,23.13
2022-09-10T05:58:11.086Z,22.25
2022-09-10T06:00:39.065Z,23.65
2022-09-10T06:03:07.833Z,23.08
2022-09-10T06:05:35.966Z,21.52
2022-09-10T06:08:08.516Z,21.52
2022-09-10T06:10:37.337Z,23.20
2022-09-10T06:13:06.848Z,22.65
2022-09-10T06:15:37.953Z,23.77
2022-09-10T06:18:06.056Z,22.77
2022-09-10T06:20:34.385Z,22.45
2022-09-10T06:23:02.340Z,22.92
2022-09-10T06:25:31.185Z,23.30
2022-09-10T06:27:59.192Z,21.50
2022-09-10T06:30:27.432Z,21.65
2022-09-10T06:32:57.629Z,21.75
2022-09-10T06:35:27.217Z,21.10
2022-09-10T06:37:55.981Z,22.10
2022-09-10T06:40:27.820Z,21.92
2022-09-10T06:42:56.258Z,22.08
2022-09-10T06:45:24.236Z,23.55
2022-09-10T06:48:37.332Z,21.45
2022-09-10T06:50:51.225Z,21.92
2022-09-10T06:53:21.421Z,20.00
2022-09-10T06:55:50.638Z,19.90
2022-09-10T06:58:19.845Z,18.55
2022-09-10T07:00:48.080Z,18.38
2022-09-10T07:03:19.376Z,18.30
2022-09-10T07:05:49.037Z,18.10
2022-09-10T07:08:18.305Z,18.45
2022-09-10T07:10:47.345Z,17.27
2022-09-10T07:13:15.546Z,17.63
2022-09-10T07:15:47.517Z,18.27
2022-09-10T07:18:15.934Z,17.63
2022-09-10T07:20:44.440Z,18.20
2022-09-10T07:23:14.873Z,19.38
2022-09-10T07:25:43.484Z,19.50
2022-09-10T07:28:15.841Z,19.35
2022-09-10T07:30:45.481Z,19.52
2022-09-10T07:33:13.478Z,19.15
2022-09-10T07:35:41.866Z,17.70
2022-09-10T07:38:16.942Z,16.02
2022-09-10T07:40:44.885Z,15.35
2022-09-10T07:43:13.350Z,16.20
2022-09-10T07:45:41.699Z,16.23
2022-09-10T07:48:11.932Z,16.65
2022-09-10T07:50:39.953Z,18.90
2022-09-10T07:53:07.946Z,20.08
2022-09-10T07:55:37.332Z,21.58
2022-09-10T07:58:05.335Z,25.73
2022-09-10T08:00:33.508Z,33.55
2022-09-10T08:03:01.595Z,32.35
2022-09-10T08:05:29.858Z,36.40
2022-09-10T08:07:58.621Z,33.80
2022-09-10T08:10:26.801Z,35.40
2022-09-10T08:12:57.857Z,33.58
2022-09-10T08:15:25.831Z,34.55
2022-09-10T08:17:53.855Z,37.10
2022-09-10T08:20:22.478Z,35.58
2022-09-10T08:22:51.084Z,35.53
2022-09-10T08:25:20.207Z,33.88
2022-09-10T08:27:48.383Z,32.33
2022-09-10T08:30:17.968Z,31.95
2022-09-10T08:32:45.997Z,30.77
2022-09-10T08:35:14.608Z,28.20
2022-09-10T08:37:42.770Z,26.95
2022-09-10T08:40:13.441Z,27.15
2022-09-10T08:42:45.034Z,26.60
2022-09-10T08:45:17.556Z,27.25
2022-09-10T08:47:55.534Z,25.67
2022-09-10T08:50:30.248Z,26.13
2022-09-10T08:53:04.859Z,26.83
2022-09-10T08:55:35.349Z,25.02
2022-09-10T08:58:13.846Z,25.75
2022-09-10T09:00:45.708Z,26.30
2022-09-10T09:03:21.630Z,26.98
2022-09-10T09:05:53.745Z,26.95
2022-09-10T09:08:25.914Z,27.83
2022-09-10T09:11:00.628Z,26.42
2022-09-10T09:13:40.492Z,28.23
2022-09-10T09:16:26.364Z,27.95
2022-09-10T09:19:07.439Z,26.88
2022-09-10T09:21:48.919Z,23.40
2022-09-10T09:24:24.245Z,23.15
2022-09-10T09:26:57.889Z,23.25
2022-09-10T09:29:31.376Z,23.67
2022-09-10T09:32:08.825Z,17.88
2022-09-10T09:34:42.147Z,18.30
2022-09-10T09:37:18.548Z,15.63
2022-09-10T09:39:54.557Z,17.08
2022-09-10T09:42:32.808Z,18.13
2022-09-10T09:45:10.660Z,18.88
2022-09-10T09:47:41.309Z,20.27
2022-09-10T09:50:13.390Z,21.15
2022-09-10T09:52:45.560Z,20.52
2022-09-10T09:55:27.323Z,19.63
2022-09-10T09:58:33.670Z,17.60
2022-09-10T10:01:21.163Z,13.70
2022-09-10T10:03:54.519Z,16.25
2022-09-10T10:06:25.808Z,17.40
2022-09-10T10:09:02.168Z,18.50
2022-09-10T10:11:50.265Z,18.90
2022-09-10T10:14:38.171Z,18.73
2022-09-10T10:17:34.967Z,17.98
2022-09-10T10:20:16.274Z,16.83
2022-09-10T10:22:45.466Z,18.27
2022-09-10T10:25:41.613Z,17.88
2022-09-10T10:28:22.102Z,23.48
2022-09-10T10:30:53.628Z,22.52
2022-09-10T10:33:29.559Z,19.95
2022-09-10T10:36:06.740Z,19.52
2022-09-10T10:38:36.709Z,22.08
2022-09-10T10:41:32.319Z,23.92
2022-09-10T10:44:24.346Z,23.13
2022-09-10T10:47:02.795Z,21.92
2022-09-10T10:49:50.125Z,24.70
2022-09-10T10:52:26.608Z,23.02
2022-09-10T10:55:08.248Z,21.10
2022-09-10T10:58:01.657Z,19.25
2022-09-10T11:00:33.715Z,19.75
2022-09-10T11:03:06.902Z,19.23
2022-09-10T11:05:38.868Z,20.15
2022-09-10T11:08:15.156Z,21.40
2022-09-10T11:10:47.564Z,23.85
2022-09-10T11:13:22.216Z,21.55
2022-09-10T11:15:59.374Z,21.63
2022-09-10T11:18:33.943Z,19.45
2022-09-10T11:21:08.535Z,20.77
2022-09-10T11:23:45.229Z,20.75
2022-09-10T11:26:17.143Z,18.67
2022-09-10T11:28:55.350Z,20.88
2022-09-10T11:31:33.789Z,19.58
2022-09-10T11:34:06.944Z,19.90
2022-09-10T11:36:42.064Z,18.65
2022-09-10T11:39:20.442Z,21.92
2022-09-10T11:41:52.609Z,17.70
2022-09-10T11:44:38.570Z,14.82
2022-09-10T11:47:15.421Z,14.30
2022-09-10T11:49:49.670Z,11.85
2022-09-10T11:52:21.631Z,11.82
2022-09-10T11:54:51.613Z,12.65
2022-09-10T11:57:33.855Z,10.82
2022-09-10T12:00:10.007Z,10.90
2022-09-10T12:03:06.603Z,12.43
2022-09-10T12:05:48.192Z,8.15
2022-09-10T12:08:23.857Z,10.57
2022-09-10T12:11:05.370Z,12.40
2022-09-10T12:13:37.156Z,10.90
2022-09-10T12:16:15.982Z,12.65
2022-09-10T12:18:47.000Z,13.30
2022-09-10T12:21:27.936Z,12.38
2022-09-10T12:23:57.032Z,12.02
2022-09-10T12:26:29.680Z,12.93
2022-09-10T12:29:06.756Z,11.65
2022-09-10T12:32:20.370Z,12.27
2022-09-10T12:34:50.841Z,11.60
2022-09-10T12:37:28.033Z,9.77
2022-09-10T12:40:33.420Z,9.43
2022-09-10T12:43:41.921Z,8.90
2022-09-10T12:46:20.120Z,9.20
2022-09-10T12:48:50.875Z,9.13
2022-09-10T12:51:30.968Z,9.38
2022-09-10T12:54:16.885Z,10.43
2022-09-10T12:57:14.677Z,10.60
2022-09-10T13:00:18.283Z,8.98
2022-09-10T13:02:53.452Z,9.05
2022-09-10T13:05:40.537Z,11.27
2022-09-10T13:08:14.293Z,12.60
2022-09-10T13:10:44.217Z,10.35
2022-09-10T13:13:35.899Z,10.10
2022-09-10T13:16:07.433Z,8.70
2022-09-10T13:18:36.843Z,8.43
2022-09-10T13:21:38.475Z,10.48
2022-09-10T13:24:39.420Z,7.22
2022-09-10T13:27:22.616Z,6.88
2022-09-10T13:29:54.604Z,8.38
2022-09-10T13:32:30.632Z,6.05
2022-09-10T13:35:26.376Z,6.85
2022-09-10T13:38:25.620Z,7.10
2022-09-10T13:41:19.077Z,6.30
2022-09-10T13:44:01.442Z,4.90
2022-09-10T13:46:36.490Z,5.18
2022-09-10T13:49:15.767Z,3.35
2022-09-10T13:51:52.167Z,5.68
2022-09-10T13:54:33.280Z,5.63
2022-09-10T13:57:09.434Z,4.18
2022-09-10T13:59:40.932Z,5.40
2022-09-10T14:02:09.005Z,6.47
2022-09-10T14:04:44.247Z,4.97
2022-09-10T14:07:20.590Z,6.10
2022-09-10T14:09:51.472Z,4.55
2022-09-10T14:12:23.351Z,5.43
2022-09-10T14:14:55.358Z,4.82
2022-09-10T14:17:27.443Z,5.95
2022-09-10T14:20:01.478Z,4.15
2022-09-10T14:22:31.891Z,5.07
2022-09-10T14:25:04.136Z,3.63
2022-09-10T14:27:34.839Z,5.47
2022-09-10T14:30:23.085Z,7.78
2022-09-10T14:32:51.901Z,8.30
2022-09-10T14:35:43.137Z,7.90
2022-09-10T14:38:24.379Z,7.28
2022-09-10T14:40:58.452Z,4.05
2022-09-10T14:43:31.880Z,5.10
2022-09-10T14:46:00.629Z,7.15
2022-09-10T14:48:32.454Z,4.10
2022-09-10T14:51:19.281Z,5.88
2022-09-10T14:53:51.710Z,6.15
2022-09-10T14:56:33.002Z,6.07
2022-09-10T14:59:03.339Z,6.70
2022-09-10T15:01:35.540Z,4.68
2022-09-10T15:04:04.363Z,5.18
2022-09-10T15:06:33.774Z,3.92
2022-09-10T15:09:01.725Z,4.05
2022-09-10T15:11:30.138Z,5.80
2022-09-10T15:13:59.346Z,5.35
2022-09-10T15:16:28.078Z,9.15
2022-09-10T15:18:58.369Z,5.78
2022-09-10T15:21:27.458Z,4.78
2022-09-10T15:23:56.863Z,5.18
2022-09-10T15:26:25.498Z,7.32
2022-09-10T15:28:53.887Z,5.22
2022-09-10T15:31:23.323Z,5.68
2022-09-10T15:33:52.913Z,5.65
2022-09-10T15:36:22.430Z,4.38
2022-09-10T15:38:52.529Z,5.75
2022-09-10T15:41:22.709Z,5.28
2022-09-10T15:43:50.730Z,4.35
2022-09-10T15:46:20.153Z,4.78
2022-09-10T15:48:49.809Z,4.57
2022-09-10T15:51:21.305Z,7.45
2022-09-10T15:53:50.367Z,5.57
2022-09-10T15:56:19.374Z,6.22
2022-09-10T15:58:51.799Z,5.93
2022-09-10T16:01:20.321Z,4.82
2022-09-10T16:03:50.820Z,7.18
2022-09-10T16:06:20.688Z,5.68
2022-09-10T16:08:50.661Z,5.70
2022-09-10T16:11:21.791Z,6.32
2022-09-10T16:13:51.792Z,7.05
2022-09-10T16:16:21.907Z,4.60
2022-09-10T16:18:51.599Z,7.15
2022-09-10T16:21:22.426Z,7.00
2022-09-10T16:23:54.979Z,6.30
2022-09-10T16:26:24.839Z,5.72
2022-09-10T16:28:55.840Z,5.65
2022-09-10T16:31:25.836Z,6.03
2022-09-10T16:33:55.385Z,6.53
2022-09-10T16:36:26.180Z,6.97
2022-09-10T16:38:55.567Z,7.32
2022-09-10T16:41:25.276Z,6.80
2022-09-10T16:43:56.713Z,5.93
2022-09-10T16:46:26.789Z,6.00
2022-09-10T16:48:56.321Z,8.50
2022-09-10T16:51:26.303Z,8.48
2022-09-10T16:53:56.908Z,5.93
2022-09-10T16:56:26.714Z,6.38
2022-09-10T16:58:56.304Z,4.75
2022-09-10T17:01:24.320Z,5.60
2022-09-10T17:03:52.652Z,4.40
2022-09-10T17:06:23.197Z,6.05
2022-09-10T17:08:51.687Z,8.80
2022-09-10T17:11:20.725Z,7.85
2022-09-10T17:13:48.841Z,5.75
2022-09-10T17:16:25.723Z,12.73
2022-09-10T17:18:58.839Z,5.32
2022-09-10T17:21:27.146Z,8.02
2022-09-10T17:23:55.375Z,7.35
2022-09-10T17:26:24.215Z,7.95
2022-09-10T17:28:54.894Z,7.75
2022-09-10T17:31:25.035Z,9.20
2022-09-10T17:33:53.303Z,9.75
2022-09-10T17:36:22.091Z,8.98
2022-09-10T17:38:50.439Z,8.73
2022-09-10T17:41:18.591Z,9.65
2022-09-10T17:43:47.103Z,10.55
2022-09-10T17:46:18.227Z,13.05
2022-09-10T17:48:48.419Z,13.25
2022-09-10T17:51:18.540Z,13.52
2022-09-10T17:53:47.126Z,13.90
2022-09-10T17:56:17.258Z,14.93
2022-09-10T17:58:45.359Z,13.80
2022-09-10T18:01:22.541Z,17.38
2022-09-10T18:03:53.043Z,18.50
2022-09-10T18:06:22.519Z,18.65
2022-09-10T18:08:50.975Z,18.27
2022-09-10T18:11:21.673Z,18.35
2022-09-10T18:13:52.396Z,18.30
2022-09-10T18:16:23.795Z,16.10
2022-09-10T18:18:55.889Z,18.73
2022-09-10T18:21:27.098Z,17.20
2022-09-10T18:23:57.127Z,18.92
2022-09-10T18:26:26.805Z,19.83
2022-09-10T18:28:58.542Z,20.67
2022-09-10T18:31:29.256Z,21.33
2022-09-10T18:33:59.373Z,22.13
2022-09-10T18:36:28.836Z,22.50
2022-09-10T18:38:57.241Z,23.10
2022-09-10T18:41:27.623Z,22.40
2022-09-10T18:43:59.083Z,22.67
2022-09-10T18:46:28.993Z,21.77
2022-09-10T18:49:07.675Z,23.08
2022-09-10T18:51:40.934Z,22.73
2022-09-10T18:54:14.106Z,24.10
2022-09-10T18:56:44.788Z,25.27
2022-09-10T18:59:15.327Z,24.17
2022-09-10T19:01:45.712Z,23.08
2022-09-10T19:04:16.574Z,23.98
2022-09-10T19:06:46.776Z,23.88
2022-09-10T19:09:16.540Z,25.38
2022-09-10T19:11:46.439Z,24.70
2022-09-10T19:14:18.087Z,25.30
2022-09-10T19:16:47.995Z,24.48
2022-09-10T19:19:22.219Z,26.00
2022-09-10T19:21:55.481Z,25.58
2022-09-10T19:24:51.140Z,26.13
2022-09-10T19:27:17.241Z,25.80
2022-09-10T19:29:47.385Z,28.00
2022-09-10T19:32:17.189Z,27.65
2022-09-10T19:34:50.044Z,26.67
2022-09-10T19:37:19.587Z,27.30
2022-09-10T19:39:47.826Z,28.88
2022-09-10T19:42:16.384Z,29.15
2022-09-10T19:44:44.574Z,29.80
2022-09-10T19:47:13.010Z,29.60
2022-09-10T19:49:41.121Z,30.67
2022-09-10T19:52:11.023Z,30.60
2022-09-10T19:54:39.136Z,30.30
2022-09-10T19:57:07.072Z,30.17
2022-09-10T19:59:35.575Z,30.63
2022-09-10T20:02:03.777Z,30.70
2022-09-10T20:04:33.125Z,31.85
2022-09-10T20:07:01.265Z,29.08
2022-09-10T20:09:30.756Z,32.67
2022-09-10T20:11:58.758Z,31.42
2022-09-10T20:14:28.437Z,32.90
2022-09-10T20:16:56.940Z,34.92
2022-09-10T20:19:24.821Z,32.95
2022-09-10T20:21:53.409Z,32.47
2022-09-10T20:24:22.205Z,32.50
2022-09-10T20:26:51.718Z,33.08
2022-09-10T20:29:20.465Z,31.75
2022-09-10T20:31:49.397Z,32.47
2022-09-10T20:34:19.493Z,32.28
2022-09-10T20:36:48.203Z,31.23
2022-09-10T20:39:18.113Z,31.98
2022-09-10T20:41:46.702Z,33.15
2022-09-10T20:44:17.530Z,31.23
2022-09-10T20:46:45.605Z,30.77
2022-09-10T20:49:16.292Z,30.38
2022-09-10T20:51:45.231Z,31.10
2022-09-10T20:54:15.033Z,35.25
2022-09-10T20:56:43.501Z,31.83
2022-09-10T20:59:14.618Z,33.45
2022-09-10T21:01:46.041Z,32.08
2022-09-10T21:04:14.624Z,33.67
2022-09-10T21:06:42.804Z,34.17
2022-09-10T21:09:11.375Z,32.72
2022-09-10T21:11:39.623Z,30.10
2022-09-10T21:14:09.206Z,33.65
2022-09-10T21:16:38.365Z,30.40
2022-09-10T21:19:09.057Z,31.95
2022-09-10T21:21:39.459Z,34.20
2022-09-10T21:24:09.599Z,32.40
2022-09-10T21:26:39.908Z,32.20
2022-09-10T21:29:11.459Z,31.00
2022-09-10T21:31:39.937Z,31.33
2022-09-10T21:34:09.578Z,31.60
2022-09-10T21:36:39.091Z,33.88
2022-09-10T21:39:09.851Z,33.03
2022-09-10T21:41:39.855Z,35.38
2022-09-10T21:44:12.128Z,33.65
2022-09-10T21:46:40.872Z,34.90
2022-09-10T21:49:10.487Z,32.25
2022-09-10T21:51:39.032Z,33.55
2022-09-10T21:54:07.563Z,33.72
2022-09-10T21:56:35.465Z,35.17
2022-09-10T21:59:03.357Z,33.53
2022-09-10T22:01:33.002Z,34.38
2022-09-10T22:04:02.134Z,37.03
2022-09-10T22:06:32.856Z,34.50
2022-09-10T22:09:02.632Z,34.75
2022-09-10T22:11:33.185Z,34.28
2022-09-10T22:14:03.658Z,33.00
2022-09-10T22:16:33.228Z,34.35
2022-09-10T22:19:03.434Z,36.53
2022-09-10T22:21:32.770Z,37.53
2022-09-10T22:24:00.993Z,37.15
2022-09-10T22:26:29.543Z,35.92
2022-09-10T22:29:00.411Z,35.35
2022-09-10T22:31:31.390Z,34.65
2022-09-10T22:34:01.549Z,35.38
2022-09-10T22:36:34.051Z,36.65
2022-09-10T22:39:04.137Z,34.72
2022-09-10T22:41:34.383Z,34.35
2022-09-10T22:44:02.763Z,34.95
2022-09-10T22:46:31.509Z,38.08
2022-09-10T22:49:00.182Z,37.67
2022-09-10T22:51:30.461Z,35.95
2022-09-10T22:53:59.826Z,37.22
2022-09-10T22:56:29.898Z,37.25
2022-09-10T22:58:59.828Z,37.05
2022-09-10T23:01:29.845Z,36.90
2022-09-10T23:03:59.257Z,37.75
2022-09-10T23:06:28.720Z,40.42
2022-09-10T23:09:02.779Z,37.90
2022-09-10T23:11:32.180Z,39.33
2022-09-10T23:14:02.126Z,38.33
2022-09-10T23:16:32.289Z,37.17
2022-09-10T23:19:03.772Z,35.50
2022-09-10T23:21:33.664Z,33.97
2022-09-10T23:24:05.228Z,37.40
2022-09-10T23:26:33.355Z,38.88
2022-09-10T23:29:04.178Z,38.90
2022-09-10T23:31:33.986Z,37.17
2022-09-10T23:34:03.548Z,38.40
2022-09-10T23:36:33.692Z,38.15
2022-09-10T23:39:07.532Z,40.25
2022-09-10T23:41:36.066Z,36.50
2022-09-10T23:44:04.358Z,36.65
2022-09-10T23:46:33.014Z,35.67
2022-09-10T23:49:01.991Z,35.85
2022-09-10T23:51:31.215Z,36.10
2022-09-10T23:53:59.517Z,35.08
2022-09-10T23:56:29.200Z,35.65
2022-09-10T23:58:59.258Z,35.83
